createdAt,value
2023-01-02T00:07:48.955Z,94.68
2023-01-02T00:18:10.470Z,94.72
2023-01-02T00:28:31.959Z,95.58
2023-01-02T00:38:56.801Z,96.03
2023-01-02T00:49:18.236Z,94.66
2023-01-02T00:59:39.594Z,94.76
2023-01-02T01:10:00.991Z,94.45
2023-01-02T01:20:22.382Z,94.10
2023-01-02T01:30:43.736Z,95.50
2023-01-02T01:41:05.621Z,95.20
2023-01-02T01:51:28.182Z,96.73
2023-01-02T02:01:50.621Z,93.82
2023-01-02T02:12:12.956Z,93.70
2023-01-02T02:22:46.656Z,93.42
2023-01-02T02:33:26.757Z,93.76
2023-01-02T02:44:08.372Z,93.00
2023-01-02T02:54:33.257Z,94.59
2023-01-02T03:05:00.166Z,92.88
2023-01-02T03:15:29.394Z,92.82
2023-01-02T03:25:52.071Z,91.68
2023-01-02T03:36:16.860Z,92.20
2023-01-02T03:46:47.357Z,93.01
2023-01-02T03:57:08.699Z,92.31
2023-01-02T04:07:53.685Z,90.95
2023-01-02T04:18:19.425Z,92.12
2023-01-02T04:28:40.974Z,92.89
2023-01-02T04:39:02.365Z,94.14
2023-01-02T04:49:26.655Z,94.34
2023-01-02T04:59:48.101Z,95.54
2023-01-02T05:10:09.600Z,96.01
2023-01-02T05:20:30.962Z,95.25
2023-01-02T05:30:52.431Z,95.74
2023-01-02T05:41:15.011Z,95.99
2023-01-02T05:51:36.697Z,94.96
2023-01-02T06:01:58.242Z,95.35
2023-01-02T06:12:19.682Z,95.45
2023-01-02T06:22:41.068Z,94.78
2023-01-02T06:33:02.407Z,95.21
2023-01-02T06:43:24.373Z,94.29
2023-01-02T06:53:45.954Z,93.35
2023-01-02T07:04:12.935Z,94.61
2023-01-02T07:14:34.312Z,94.65
2023-01-02T07:24:55.665Z,94.59
2023-01-02T07:35:17.032Z,94.38
2023-01-02T07:45:38.447Z,94.12
2023-01-02T07:56:00.863Z,96.80
2023-01-02T08:06:22.267Z,94.19
2023-01-02T08:16:43.656Z,94.44
2023-01-02T08:27:05.452Z,92.72
2023-01-02T08:37:26.972Z,93.70
2023-01-02T08:47:48.383Z,93.77
2023-01-02T08:58:09.803Z,93.67
2023-01-02T09:08:31.510Z,94.79
2023-01-02T09:18:54.903Z,95.20
2023-01-02T09:29:16.388Z,94.83
2023-01-02T09:39:37.746Z,93.35
2023-01-02T09:50:04.563Z,91.88
2023-01-02T10:00:26.992Z,93.88
2023-01-02T10:11:03.831Z,92.56
2023-01-02T10:21:27.321Z,92.32
2023-01-02T10:31:51.719Z,91.92
2023-01-02T10:42:14.828Z,91.08
2023-01-02T10:52:41.665Z,90.90
2023-01-02T11:03:14.925Z,90.37
2023-01-02T11:13:52.168Z,91.50
2023-01-02T11:24:19.620Z,89.59
2023-01-02T11:34:53.311Z,89.88
2023-01-02T11:45:18.617Z,89.00
2023-01-02T11:55:53.779Z,89.65
2023-01-02T12:06:18.167Z,87.55
2023-01-02T12:16:51.837Z,87.51
2023-01-02T12:27:32.239Z,87.21
2023-01-02T12:37:58.431Z,89.93
2023-01-02T12:48:30.523Z,90.78
2023-01-02T12:59:10.823Z,90.77
2023-01-02T13:09:40.341Z,91.26
2023-01-02T13:20:04.713Z,89.85
2023-01-02T13:30:35.349Z,89.00
2023-01-02T13:40:58.252Z,89.55
2023-01-02T13:51:24.912Z,88.08
2023-01-02T14:02:13.028Z,87.50
2023-01-02T14:12:53.048Z,87.44
2023-01-02T14:23:33.596Z,86.83
2023-01-02T14:33:55.651Z,86.63
2023-01-02T14:44:17.120Z,87.08
2023-01-02T14:54:47.029Z,87.08
2023-01-02T15:05:10.405Z,87.29
2023-01-02T15:15:36.464Z,86.09
2023-01-02T15:26:31.633Z,86.68
2023-01-02T15:36:42.507Z,87.21
2023-01-02T15:47:06.383Z,86.79
2023-01-02T15:57:29.245Z,86.45
2023-01-02T16:07:58.273Z,86.42
2023-01-02T16:18:19.680Z,86.67
2023-01-02T16:28:43.075Z,87.77
2023-01-02T16:39:24.392Z,87.92
2023-01-02T16:49:45.752Z,88.36
2023-01-02T17:00:07.731Z,89.54
2023-01-02T17:10:29.106Z,91.01
2023-01-02T17:20:50.714Z,88.57
2023-01-02T17:31:14.087Z,89.01
2023-01-02T17:41:35.575Z,86.43
2023-01-02T17:51:56.936Z,86.12
2023-01-02T18:02:19.656Z,86.47
2023-01-02T18:12:42.778Z,86.28
2023-01-02T18:23:11.539Z,86.93
2023-01-02T18:33:32.933Z,86.80
2023-01-02T18:44:01.228Z,87.37
2023-01-02T18:54:27.685Z,87.52
2023-01-02T19:04:49.036Z,87.99
2023-01-02T19:15:29.225Z,88.03
2023-01-02T19:25:51.907Z,87.72
2023-01-02T19:36:17.578Z,87.65
2023-01-02T19:46:39.023Z,87.57
2023-01-02T19:57:00.373Z,87.83
2023-01-02T20:07:23.053Z,87.18
2023-01-02T20:17:44.987Z,86.27
2023-01-02T20:28:06.395Z,85.59
2023-01-02T20:38:27.993Z,86.10
2023-01-02T20:48:49.445Z,86.30
2023-01-02T20:59:10.882Z,86.00
2023-01-02T21:09:32.367Z,86.68
2023-01-02T21:19:53.739Z,86.56
2023-01-02T21:30:15.158Z,86.78
2023-01-02T21:40:36.898Z,87.52
2023-01-02T21:50:59.109Z,87.71
2023-01-02T22:01:20.655Z,87.99
2023-01-02T22:11:57.501Z,88.41
2023-01-02T22:22:19.263Z,88.25
2023-01-02T22:32:40.696Z,88.46
2023-01-02T22:43:04.436Z,88.77
2023-01-02T22:53:28.178Z,89.27
2023-01-02T23:03:49.935Z,87.94
2023-01-02T23:14:12.507Z,88.84
2023-01-02T23:24:34.997Z,89.09
2023-01-02T23:34:56.353Z,88.98
2023-01-02T23:45:17.685Z,89.17
2023-01-02T23:55:42.686Z,89.34
